PINE FLAT DAM (PNF)

Elevation: 970' · KINGS R basin · Operator: US Army Corps of Engineers

Provisional data, subject to change.
Query executed Saturday at 5:16:35   clock

Select a sensor type for a plot of data.
Note: Reservoir Flows are daily averages.

Earlier

Date RES ELE    STORAGE    RES CHG    TOC STO    ABV TOC    OUTFLOW    INFLOW    FNF    PPT INC    PPTINC4    TEMP MN    TEMP MX    WINDLEN    EVP PAN   
 FEET   AF   AF   AF   AF   CFS   CFS   CFS   INCHES   INCHES   DEG F   DEG F   MILES   INCHES  
10/02/2014 720.31 114000 -20 984430 -870430 266 270 89 0.01 0.00 -- -- 53 0.19
10/03/2014 720.36 114100 100 976640 -862540 266 327 132 0.01 0.00 -- -- 48 0.18
10/04/2014 720.40 114170 70 968850 -854680 266 317 114 0.01 0.00 -- -- 49 0.18
10/05/2014 720.43 114230 60 961070 -846840 263 305 102 0.00 0.00 -- -- 48 0.18
10/06/2014 720.56 114470 240 953280 -838810 261 397 119 0.00 0.00 -- -- 50 0.18
10/07/2014 720.74 114810 340 945490 -830680 262 445 158 0.01 0.00 -- -- 45 0.17
10/08/2014 720.77 114870 60 937710 -822840 266 307 103 0.00 0.00 -- -- 40 0.16
10/09/2014 720.72 114770 -100 929920 -815150 266 232 75 0.00 0.00 -- -- 49 0.17
10/10/2014 720.71 114750 -20 922130 -807380 261 263 98 0.00 0.00 -- -- 48 0.16
10/11/2014 720.68 114700 -50 914340 -799640 257 240 78 0.00 0.00 -- -- 52 0.16
10/12/2014 720.63 114604 -100 906558 -791960 256 220 136 0.00 0.00 -- -- 45 0.15
10/13/2014 720.53 114416 -180 898771 -784350 253 171 43 0.00 0.00 -- -- 54 0.17
10/14/2014 720.53 114416 0 890984 -776560 252 264 78 0.00 0.00 -- -- 52 0.16
10/15/2014 720.49 114341 -80 883197 -768856 r 266 237 139 0.00 0.00 -- -- 43 0.12
10/16/2014 720.35 114078 -263 875410 -761332 271 147 86 0.00 0.00 -- -- 44 0.12
10/17/2014 720.21 113816 -262 867623 -753807 271 147 42 0.00 0.00 -- -- 44 0.12
10/18/2014 720.12 113648 -168 859836 -746188 270 195 102 0.00 0.00 -- -- 44 0.13
10/19/2014 720.00 113424 -224 852049 -738625 270 167 76 0.00 0.00 -- -- 48 0.14
10/20/2014 719.93 113293 -131 844262 -730969 274 218 103 0.00 0.00 -- -- 52 0.14
10/21/2014 719.87 113181 -112 836476 -723295 270 221 102 0.00 0.00 -- -- 44 0.11
10/22/2014 719.79 113032 -149 828689 -715657 269 202 33 0.00 0.00 -- -- 40 0.11
10/23/2014 719.77 112994 -38 820902 -707908 271 260 88 0.00 0.00 -- -- 46 0.12
10/24/2014 719.73 112920 -74 813115 -700195 254 227 133 0.00 0.00 -- -- 50 0.14
10/25/2014 719.66 112789 -131 805328 -692539 241 184 82 0.00 0.00 -- -- 45 0.12
10/26/2014 719.53 112547 -242 797541 -684994 240 126 65 0.00 0.00 -- -- 42 0.10
10/27/2014 719.48 112454 -93 789754 -677300 240 201 18 0.00 0.00 -- -- 41 0.10
10/28/2014 719.49 112473 19 781967 -669494 240 257 113 0.00 0.00 -- -- 42 0.11
10/29/2014 719.52 112529 56 774180 -661651 214 251 109 0.00 0.00 -- -- 47 0.11
10/30/2014 719.59 112659 130 766393 -653734 176 250 131 0.00 0.00 -- -- 45 0.12
10/31/2014 719.66 112789 130 758606 -- 152 226 171 0.40 0.00 -- -- 56 0.11
11/01/2014 -- -- -- -- -- -- -- -- -- -- -- -- -- --

Later | Latest

Warning! This data is preliminary and subject to revision.

Show PNF Map | Plot PNF Data | 1 Month PNF Data | Real-Time PNF Data | PNF Info